createdAt,value
2018-07-20T05:25:11.048Z,8.40
2018-07-20T05:27:39.326Z,8.75
2018-07-20T05:30:07.564Z,8.75
2018-07-20T05:32:36.781Z,8.00
2018-07-20T05:35:05.075Z,8.50
2018-07-20T05:37:33.824Z,9.90
2018-07-20T05:40:05.581Z,7.80
2018-07-20T05:42:33.885Z,8.97
2018-07-20T05:45:02.144Z,8.67
2018-07-20T05:47:30.421Z,8.70
2018-07-20T05:49:58.637Z,8.27
2018-07-20T05:52:26.872Z,8.60
2018-07-20T05:54:58.766Z,8.90
2018-07-20T05:57:27.108Z,7.53
2018-07-20T05:59:55.328Z,8.10
2018-07-20T06:02:23.594Z,8.25
2018-07-20T06:04:51.839Z,7.53
2018-07-20T06:07:20.112Z,8.23
2018-07-20T06:09:48.301Z,8.50
2018-07-20T06:12:16.539Z,7.30
2018-07-20T06:14:44.773Z,7.60
2018-07-20T06:17:12.821Z,7.73
2018-07-20T06:19:41.094Z,8.40
2018-07-20T06:22:09.347Z,9.15
2018-07-20T06:24:37.624Z,7.80
2018-07-20T06:27:05.848Z,7.85
2018-07-20T06:29:33.882Z,8.53
2018-07-20T06:32:02.082Z,9.07
2018-07-20T06:34:30.428Z,8.03
2018-07-20T06:36:58.651Z,8.58
2018-07-20T06:39:30.700Z,7.65
2018-07-20T06:41:58.893Z,8.60
2018-07-20T06:44:27.228Z,9.20
2018-07-20T06:46:55.957Z,10.15
2018-07-20T06:49:24.169Z,7.97
2018-07-20T06:51:52.387Z,8.60
2018-07-20T06:54:20.611Z,8.20
2018-07-20T06:56:52.708Z,8.60
2018-07-20T06:59:21.291Z,9.83
2018-07-20T07:01:49.544Z,8.87
2018-07-20T07:04:17.783Z,9.88
2018-07-20T07:06:45.998Z,9.10
2018-07-20T07:09:14.365Z,8.90
2018-07-20T07:11:46.079Z,10.00
2018-07-20T07:14:14.384Z,9.00
2018-07-20T07:16:42.636Z,7.53
2018-07-20T07:19:10.613Z,11.10
2018-07-20T07:21:38.857Z,9.30
2018-07-20T07:24:07.477Z,9.40
2018-07-20T07:26:35.684Z,11.30
2018-07-20T07:29:04.042Z,7.60
2018-07-20T07:31:32.274Z,6.97
2018-07-20T07:34:00.545Z,9.10
2018-07-20T07:36:28.796Z,9.00
2018-07-20T07:38:57.042Z,8.30
2018-07-20T07:41:28.392Z,8.53
2018-07-20T07:43:56.640Z,8.10
2018-07-20T07:46:25.018Z,8.47
2018-07-20T07:48:53.186Z,7.37
2018-07-20T07:51:21.273Z,6.55
2018-07-20T07:53:50.785Z,6.33
2018-07-20T07:56:19.667Z,7.35
2018-07-20T07:58:47.897Z,7.37
2018-07-20T08:01:16.140Z,6.83
2018-07-20T08:03:45.189Z,6.40
2018-07-20T08:06:13.396Z,7.13
2018-07-20T08:08:41.621Z,6.03
2018-07-20T08:11:14.204Z,7.27
2018-07-20T08:13:42.468Z,6.03
2018-07-20T08:16:10.801Z,5.05
2018-07-20T08:18:39.062Z,7.00
2018-07-20T08:21:07.303Z,6.20
2018-07-20T08:23:35.537Z,6.50
2018-07-20T08:26:08.601Z,6.30
2018-07-20T08:28:36.823Z,6.25
2018-07-20T08:31:04.855Z,5.90
2018-07-20T08:33:33.092Z,6.67
2018-07-20T08:36:01.315Z,6.50
2018-07-20T08:38:30.014Z,7.12
2018-07-20T08:40:58.777Z,6.53
2018-07-20T08:43:28.125Z,6.00
2018-07-20T08:45:56.445Z,6.50
2018-07-20T08:48:25.604Z,5.42
2018-07-20T08:50:54.274Z,6.37
2018-07-20T08:53:22.856Z,5.62
2018-07-20T08:55:51.477Z,5.70
2018-07-20T08:58:20.173Z,6.00
2018-07-20T09:00:48.514Z,5.60
2018-07-20T09:03:16.748Z,5.73
2018-07-20T09:05:44.992Z,5.95
2018-07-20T09:08:13.230Z,5.63
2018-07-20T09:10:41.918Z,5.60
2018-07-20T09:13:10.147Z,5.43
2018-07-20T09:15:39.323Z,5.35
2018-07-20T09:18:07.568Z,5.50
2018-07-20T09:20:35.921Z,6.30
2018-07-20T09:23:04.384Z,5.50
2018-07-20T09:25:32.600Z,5.57
2018-07-20T09:28:01.388Z,5.55
2018-07-20T09:30:29.624Z,5.40
2018-07-20T09:32:57.943Z,5.63
2018-07-20T09:35:26.161Z,4.57
2018-07-20T09:37:54.332Z,5.27
2018-07-20T09:40:22.574Z,5.25
2018-07-20T09:42:51.143Z,4.80
2018-07-20T09:45:19.664Z,4.70
2018-07-20T09:47:48.908Z,4.80
2018-07-20T09:50:17.089Z,4.70
2018-07-20T09:52:48.122Z,4.53
2018-07-20T09:55:16.781Z,4.00
2018-07-20T09:57:48.632Z,4.17
2018-07-20T10:00:22.473Z,4.17
2018-07-20T10:12:30.913Z,4.97
2018-07-20T10:14:59.175Z,4.40
2018-07-20T10:17:27.388Z,4.75
2018-07-20T10:19:55.966Z,4.80
2018-07-20T10:22:24.191Z,4.97
2018-07-20T10:24:52.835Z,4.27
2018-07-20T10:27:21.132Z,4.37
2018-07-20T10:29:49.394Z,3.70
2018-07-20T10:32:17.685Z,3.87
2018-07-20T10:34:46.189Z,3.77
2018-07-20T10:37:14.399Z,3.83
2018-07-20T10:39:43.117Z,3.90
2018-07-20T10:42:12.203Z,4.03
2018-07-20T10:44:49.968Z,4.53
2018-07-20T10:47:18.533Z,5.10
2018-07-20T10:49:47.000Z,4.10
2018-07-20T10:52:15.454Z,4.87
2018-07-20T10:54:43.936Z,4.63
2018-07-20T10:57:12.195Z,3.53
2018-07-20T10:59:40.436Z,4.53
2018-07-20T11:02:08.715Z,4.00
2018-07-20T11:04:37.886Z,4.50
2018-07-20T11:07:06.335Z,3.35
2018-07-20T11:09:34.824Z,4.03
2018-07-20T11:12:03.097Z,3.87
2018-07-20T11:14:34.723Z,4.17
2018-07-20T11:17:03.874Z,4.10
2018-07-20T11:19:32.207Z,7.23
2018-07-20T11:22:00.753Z,4.78
2018-07-20T11:24:28.955Z,4.50
2018-07-20T11:26:57.192Z,3.90
2018-07-20T11:29:29.691Z,4.03
2018-07-20T11:31:58.486Z,3.95
2018-07-20T11:34:26.702Z,4.13
2018-07-20T11:36:55.131Z,3.70
2018-07-20T11:39:23.348Z,3.73
2018-07-20T11:41:51.646Z,4.05
2018-07-20T11:44:28.537Z,4.37
2018-07-20T11:46:56.765Z,3.83
2018-07-20T11:49:25.363Z,4.50
2018-07-20T11:51:54.036Z,4.67
2018-07-20T11:54:22.265Z,4.20
2018-07-20T11:56:50.567Z,4.20
2018-07-20T11:59:18.925Z,3.83
2018-07-20T12:01:47.254Z,4.17
2018-07-20T12:04:15.536Z,4.40
2018-07-20T12:06:43.557Z,4.37
2018-07-20T12:09:12.634Z,4.40
2018-07-20T12:11:41.596Z,4.67
2018-07-20T12:14:09.886Z,3.90
2018-07-20T12:16:45.608Z,3.55
2018-07-20T12:19:13.893Z,3.30
2018-07-20T12:21:42.157Z,4.00
2018-07-20T12:24:10.431Z,3.77
2018-07-20T12:26:39.271Z,4.10
2018-07-20T12:29:07.575Z,4.57
2018-07-20T12:31:43.024Z,3.72
2018-07-20T12:34:11.300Z,4.10
2018-07-20T12:36:40.465Z,3.67
2018-07-20T12:39:09.938Z,3.50
2018-07-20T12:41:38.183Z,3.00
2018-07-20T12:44:06.700Z,3.50
2018-07-20T12:46:35.311Z,3.70
2018-07-20T12:49:03.643Z,3.57
2018-07-20T12:51:31.894Z,3.50
2018-07-20T12:54:00.419Z,4.45
2018-07-20T12:56:30.467Z,4.63
2018-07-20T12:58:58.944Z,3.55
2018-07-20T13:01:31.056Z,4.20
2018-07-20T13:03:59.396Z,4.30
2018-07-20T13:06:27.624Z,3.90
2018-07-20T13:08:55.895Z,3.80
2018-07-20T13:11:24.149Z,3.90
2018-07-20T13:13:52.371Z,3.80
2018-07-20T13:16:20.627Z,3.80
2018-07-20T13:18:55.616Z,4.30
2018-07-20T13:21:24.039Z,4.40
2018-07-20T13:23:52.311Z,4.17
2018-07-20T13:26:21.051Z,3.67
2018-07-20T13:28:49.372Z,3.50
2018-07-20T13:31:17.768Z,3.77
2018-07-20T13:33:46.100Z,4.10
2018-07-20T13:36:14.349Z,4.67
2018-07-20T13:38:42.588Z,3.08
2018-07-20T13:41:10.875Z,4.30
2018-07-20T13:43:39.080Z,4.20
2018-07-20T13:46:07.399Z,3.63
2018-07-20T13:48:35.770Z,3.17
2018-07-20T13:51:04.107Z,3.70
2018-07-20T13:53:32.381Z,4.00
2018-07-20T13:56:00.605Z,4.20
2018-07-20T13:58:28.820Z,4.30
2018-07-20T14:00:57.167Z,3.00
2018-07-20T14:03:25.459Z,4.50
2018-07-20T14:05:54.947Z,4.00
2018-07-20T14:08:23.168Z,3.90
2018-07-20T14:10:51.404Z,3.90
2018-07-20T14:13:19.618Z,4.90
2018-07-20T14:15:47.852Z,5.50
2018-07-20T14:18:16.230Z,4.70
2018-07-20T14:20:44.572Z,5.07
2018-07-20T14:23:12.817Z,5.15
2018-07-20T14:25:40.826Z,3.90
2018-07-20T14:28:09.103Z,4.80
2018-07-20T14:30:37.470Z,4.20
2018-07-20T14:33:05.912Z,3.83
2018-07-20T14:35:34.394Z,4.07
2018-07-20T14:38:02.646Z,4.70
2018-07-20T14:40:31.016Z,5.22
2018-07-20T14:42:59.360Z,4.53
2018-07-20T14:45:27.596Z,4.60
2018-07-20T14:47:55.860Z,4.17
2018-07-20T14:50:24.132Z,6.45
2018-07-20T14:52:52.414Z,3.80
2018-07-20T14:55:20.735Z,5.15
2018-07-20T14:57:48.962Z,4.50
2018-07-20T15:00:18.024Z,4.77
2018-07-20T15:02:46.383Z,4.23
2018-07-20T15:05:14.610Z,3.70
2018-07-20T15:07:42.975Z,3.87
2018-07-20T15:10:11.267Z,4.30
2018-07-20T15:12:39.550Z,4.03
2018-07-20T15:15:08.439Z,4.60
2018-07-20T15:17:37.705Z,3.97
2018-07-20T15:20:06.525Z,3.60
2018-07-20T15:22:35.168Z,4.50
2018-07-20T15:25:03.553Z,4.13
2018-07-20T15:27:32.581Z,4.45
2018-07-20T15:30:00.914Z,4.10
2018-07-20T15:32:29.133Z,4.80
2018-07-20T15:35:00.810Z,4.40
2018-07-20T15:37:29.494Z,5.20
2018-07-20T15:39:57.581Z,4.10
2018-07-20T15:42:25.872Z,4.28
2018-07-20T15:44:54.245Z,4.28
2018-07-20T15:47:22.695Z,4.45
2018-07-20T15:49:50.871Z,3.93
2018-07-20T15:54:47.374Z,5.00
2018-07-20T15:57:15.686Z,4.63
2018-07-20T15:59:44.072Z,4.40
2018-07-20T16:02:12.218Z,3.80
2018-07-20T16:04:40.454Z,4.78
2018-07-20T16:07:11.876Z,4.30
2018-07-20T16:09:40.152Z,4.60
2018-07-20T16:12:09.126Z,3.70
2018-07-20T16:14:37.400Z,4.80
2018-07-20T16:17:05.681Z,4.87
2018-07-20T16:19:37.850Z,4.57
2018-07-20T16:22:10.307Z,4.37
2018-07-20T16:24:39.589Z,5.07
2018-07-20T16:27:07.849Z,3.90
2018-07-20T16:29:36.358Z,4.33
2018-07-20T16:32:04.673Z,4.00
2018-07-20T16:34:33.160Z,4.28
2018-07-20T16:37:02.084Z,4.33
2018-07-20T16:39:30.380Z,3.47
2018-07-20T16:41:58.634Z,3.90
2018-07-20T16:44:27.808Z,4.25
2018-07-20T16:46:56.084Z,3.90
2018-07-20T16:49:27.716Z,4.80
2018-07-20T16:51:55.964Z,4.40
2018-07-20T16:54:24.262Z,5.20
2018-07-20T16:56:52.728Z,3.83
2018-07-20T16:59:21.283Z,4.07
2018-07-20T17:01:49.508Z,4.00
2018-07-20T17:04:17.777Z,4.10
2018-07-20T17:06:46.055Z,4.20
2018-07-20T17:09:14.355Z,3.50
2018-07-20T17:11:42.607Z,4.87
2018-07-20T17:14:10.988Z,3.80
2018-07-20T17:16:39.364Z,3.43
2018-07-20T17:19:07.683Z,4.70
2018-07-20T17:21:39.590Z,4.40
2018-07-20T17:24:07.879Z,3.50
2018-07-20T17:26:36.171Z,4.12
2018-07-20T17:29:04.664Z,3.55
2018-07-20T17:31:32.932Z,3.33
2018-07-20T17:34:01.868Z,4.20
2018-07-20T17:36:34.127Z,4.60
2018-07-20T17:39:06.960Z,5.03
2018-07-20T17:41:35.233Z,5.37
2018-07-20T17:44:03.795Z,3.54
2018-07-20T17:46:32.062Z,4.70
2018-07-20T17:49:00.339Z,3.60
2018-07-20T17:51:32.486Z,4.30
2018-07-20T17:54:00.497Z,3.33
2018-07-20T17:56:28.777Z,4.05
2018-07-20T17:58:57.076Z,4.30
2018-07-20T18:01:25.351Z,4.50
2018-07-20T18:03:53.336Z,3.70
2018-07-20T18:06:26.404Z,4.23
2018-07-20T18:08:54.688Z,4.00
2018-07-20T18:11:23.661Z,3.58
2018-07-20T18:13:51.940Z,3.63
2018-07-20T18:16:20.221Z,4.37
2018-07-20T18:18:49.018Z,4.50
2018-07-20T18:21:17.245Z,4.73
2018-07-20T18:23:45.723Z,4.60
2018-07-20T18:26:14.240Z,4.70
2018-07-20T18:28:42.520Z,4.17
2018-07-20T18:31:10.906Z,4.00
2018-07-20T18:33:39.621Z,4.87
2018-07-20T18:36:08.887Z,5.20
2018-07-20T18:38:40.593Z,4.83
2018-07-20T18:41:08.661Z,4.92
2018-07-20T18:43:37.985Z,4.17
2018-07-20T18:46:06.364Z,4.57
2018-07-20T18:48:34.815Z,6.60
2018-07-20T18:51:03.960Z,4.73
2018-07-20T18:53:32.212Z,4.77
2018-07-20T18:56:00.568Z,4.75
2018-07-20T18:58:31.489Z,4.50
2018-07-20T19:00:59.820Z,5.47
2018-07-20T19:03:28.041Z,5.07
2018-07-20T19:05:56.319Z,4.73
2018-07-20T19:08:24.566Z,4.90
2018-07-20T19:10:52.842Z,5.07
2018-07-20T19:13:21.760Z,4.95
2018-07-20T19:15:50.021Z,5.10
2018-07-20T19:18:18.808Z,5.92
2018-07-20T19:20:46.872Z,5.30
2018-07-20T19:23:15.420Z,6.07
2018-07-20T19:25:43.756Z,6.27
2018-07-20T19:28:12.009Z,5.40
2018-07-20T19:30:40.262Z,5.90
2018-07-20T19:33:08.580Z,8.63
2018-07-20T19:35:37.100Z,6.63
2018-07-20T19:38:05.396Z,6.20
2018-07-20T19:40:33.708Z,6.27
2018-07-20T19:43:02.949Z,6.12
2018-07-20T19:45:31.376Z,4.67
2018-07-20T19:47:59.751Z,5.70
2018-07-20T19:50:28.032Z,6.83
2018-07-20T19:52:56.429Z,6.03
2018-07-20T19:55:24.756Z,7.55
2018-07-20T19:57:52.979Z,7.53
2018-07-20T20:00:21.285Z,6.63
2018-07-20T20:02:49.612Z,6.60
2018-07-20T20:05:17.916Z,5.67
2018-07-20T20:07:49.664Z,5.37
2018-07-20T20:10:17.995Z,6.28
2018-07-20T20:12:46.308Z,5.50
2018-07-20T20:15:14.576Z,5.80
2018-07-20T20:17:43.433Z,6.08
2018-07-20T20:20:13.956Z,4.95
2018-07-20T20:22:43.473Z,5.50
2018-07-20T20:25:11.808Z,5.58
2018-07-20T20:27:40.485Z,6.27
2018-07-20T20:30:08.761Z,5.80
2018-07-20T20:32:37.635Z,6.20
2018-07-20T20:35:06.135Z,6.00
2018-07-20T20:37:34.443Z,5.90
2018-07-20T20:40:03.233Z,5.97
2018-07-20T20:42:36.293Z,7.57
2018-07-20T20:45:05.442Z,5.80
2018-07-20T20:47:33.771Z,6.00
2018-07-20T20:50:03.124Z,7.10
2018-07-20T20:52:31.444Z,7.00
2018-07-20T20:54:59.760Z,7.33
2018-07-20T20:57:28.039Z,6.27
2018-07-20T20:59:56.324Z,7.05
2018-07-20T21:02:24.592Z,7.60
2018-07-20T21:04:52.983Z,7.10
2018-07-20T21:07:21.186Z,7.17
2018-07-20T21:09:49.560Z,7.33
2018-07-20T21:12:17.938Z,6.60
2018-07-20T21:14:46.691Z,6.30
2018-07-20T21:17:15.216Z,7.05
2018-07-20T21:19:43.461Z,6.87
2018-07-20T21:22:12.195Z,6.67
2018-07-20T21:24:40.479Z,8.10
2018-07-20T21:27:08.701Z,8.50
2018-07-20T21:29:36.974Z,7.03
2018-07-20T21:32:05.198Z,6.60
2018-07-20T21:34:33.521Z,6.92
2018-07-20T21:37:02.011Z,7.00
2018-07-20T21:39:30.832Z,6.90
2018-07-20T21:41:59.195Z,6.17
2018-07-20T21:44:27.632Z,6.70
2018-07-20T21:46:56.496Z,6.90
2018-07-20T21:49:24.732Z,7.57
2018-07-20T21:51:53.044Z,6.75
2018-07-20T21:54:24.576Z,6.55
2018-07-20T21:56:52.925Z,8.83
2018-07-20T21:59:21.817Z,7.85
2018-07-20T22:01:50.127Z,8.63
2018-07-20T22:04:18.421Z,11.07
2018-07-20T22:06:46.705Z,8.17
2018-07-20T22:09:15.229Z,10.70
2018-07-20T22:11:43.590Z,8.43
2018-07-20T22:14:11.947Z,10.40
2018-07-20T22:16:40.191Z,8.60
2018-07-20T22:19:08.468Z,8.10
2018-07-20T22:21:36.693Z,11.13
2018-07-20T22:24:04.899Z,10.18
2018-07-20T22:26:33.121Z,10.18
2018-07-20T22:29:01.473Z,10.47
2018-07-20T22:31:30.693Z,9.55
2018-07-20T22:33:59.150Z,8.43
2018-07-20T22:36:27.752Z,9.10
2018-07-20T22:38:56.191Z,10.60
2018-07-20T22:41:27.584Z,9.90
2018-07-20T22:43:56.769Z,9.73
2018-07-20T22:46:25.763Z,9.60
2018-07-20T22:48:53.773Z,9.23
2018-07-20T22:51:22.040Z,8.57
2018-07-20T22:53:51.147Z,8.80
2018-07-20T22:56:19.418Z,7.90
2018-07-20T22:58:47.648Z,8.80
2018-07-20T23:01:15.900Z,8.70
2018-07-20T23:03:44.180Z,9.40
2018-07-20T23:06:12.536Z,8.33
2018-07-20T23:08:40.752Z,8.20
2018-07-20T23:11:19.782Z,8.20
2018-07-20T23:13:48.409Z,8.70
2018-07-20T23:16:17.051Z,9.98
2018-07-20T23:18:45.431Z,9.23
2018-07-20T23:21:13.691Z,9.43
2018-07-20T23:23:42.106Z,10.67
2018-07-20T23:26:10.353Z,9.50
2018-07-20T23:28:38.612Z,10.23
2018-07-20T23:31:06.933Z,9.60
2018-07-20T23:33:35.569Z,9.17
2018-07-20T23:36:03.891Z,9.68
2018-07-20T23:38:32.124Z,9.20
2018-07-20T23:41:05.540Z,9.23
2018-07-20T23:43:33.731Z,9.30
2018-07-20T23:46:01.998Z,10.00
2018-07-20T23:48:30.276Z,9.13
2018-07-20T23:50:58.527Z,10.47
2018-07-20T23:53:26.787Z,10.33
2018-07-20T23:55:55.000Z,9.47
2018-07-20T23:58:26.340Z,8.67
